Time;durP1;ratioP1;P1;durP2;ratioP2;P2;SDS_P1;SDS_P2;PMS_P1;PMS_P2;Temp;Humidity;BMP_temperature;BMP_pressure;BME280_temperature;BME280_humidity;BME280_pressure;Samples;Min_cycle;Max_cycle;Signal;HPM_P1;HPM_P2
2021/03/13 00:00:35;;;;;;;20.35;5.50;;;6.20;91.70;;;;;;5006262;28;20099;-54
2021/03/13 00:03:01;;;;;;;31.63;6.45;;;6.20;91.80;;;;;;5027679;28;20076;-56
2021/03/13 00:05:34;;;;;;;21.85;5.78;;;6.10;92.00;;;;;;5027406;28;20434;-55
2021/03/13 00:08:00;;;;;;;22.38;5.70;;;6.10;91.80;;;;;;5031097;28;20168;-53
2021/03/13 00:10:26;;;;;;;22.23;4.80;;;6.10;91.90;;;;;;5030632;28;20129;-55
2021/03/13 00:12:52;;;;;;;22.10;5.72;;;6.10;92.00;;;;;;5029569;28;20425;-56
2021/03/13 00:15:17;;;;;;;26.67;5.90;;;6.20;91.70;;;;;;5028853;28;20037;-56
2021/03/13 00:17:51;;;;;;;19.13;5.00;;;6.20;91.50;;;;;;5026391;28;20056;-56
2021/03/13 00:20:19;;;;;;;25.08;5.30;;;6.20;91.40;;;;;;5027006;28;20646;-57
2021/03/13 00:22:45;;;;;;;29.67;6.18;;;6.20;91.60;;;;;;5024553;28;20042;-57
2021/03/13 00:25:12;;;;;;;23.60;5.50;;;6.10;91.60;;;;;;5029720;28;20490;-57
2021/03/13 00:27:47;;;;;;;26.38;5.95;;;6.10;91.70;;;;;;5026839;28;20481;-57
2021/03/13 00:30:17;;;;;;;21.27;5.35;;;6.10;91.50;;;;;;5029672;28;20037;-57
2021/03/13 00:32:44;;;;;;;23.42;5.63;;;6.20;91.40;;;;;;5021967;28;20045;-57
2021/03/13 00:35:11;;;;;;;26.33;6.13;;;6.10;91.30;;;;;;5031089;28;20486;-56
2021/03/13 00:37:37;;;;;;;29.30;6.47;;;6.20;91.30;;;;;;5022841;28;20053;-52
2021/03/13 00:40:05;;;;;;;29.38;5.70;;;6.20;91.20;;;;;;5005115;28;20048;-54
2021/03/13 00:42:31;;;;;;;23.13;5.97;;;6.10;91.30;;;;;;5028318;28;20069;-55
2021/03/13 00:44:56;;;;;;;20.10;5.63;;;6.10;91.60;;;;;;5030678;28;20061;-55
2021/03/13 00:47:23;;;;;;;25.90;6.00;;;6.10;91.60;;;;;;5024707;28;20494;-53
2021/03/13 00:49:48;;;;;;;19.85;5.63;;;6.20;91.40;;;;;;5027210;28;20040;-55
2021/03/13 00:52:14;;;;;;;20.40;6.72;;;6.20;91.40;;;;;;5030115;28;20045;-54
2021/03/13 00:54:40;;;;;;;19.83;5.32;;;6.20;91.70;;;;;;5023536;28;20048;-54
2021/03/13 00:57:06;;;;;;;22.55;7.38;;;6.20;91.50;;;;;;5009593;28;20045;-56
2021/03/13 00:59:32;;;;;;;20.13;5.78;;;6.30;91.50;;;;;;5011624;28;20049;-54
2021/03/13 01:01:58;;;;;;;20.67;6.43;;;6.30;91.50;;;;;;5008840;28;20068;-54
2021/03/13 01:04:24;;;;;;;22.52;6.68;;;6.30;91.40;;;;;;5021773;28;20341;-53
2021/03/13 01:06:50;;;;;;;27.02;6.53;;;6.40;91.40;;;;;;5029735;28;20037;-54
2021/03/13 01:09:15;;;;;;;26.48;6.25;;;6.40;91.60;;;;;;5008667;28;20045;-55
2021/03/13 01:11:42;;;;;;;18.88;6.05;;;6.50;91.10;;;;;;5028951;28;20434;-57
2021/03/13 01:14:08;;;;;;;24.27;5.93;;;6.50;91.40;;;;;;5001106;28;20042;-56
2021/03/13 01:16:34;;;;;;;20.90;6.25;;;6.50;91.30;;;;;;5007778;28;20096;-55
2021/03/13 01:19:00;;;;;;;25.92;5.75;;;6.60;91.20;;;;;;5029033;28;20033;-55
2021/03/13 01:21:26;;;;;;;22.40;7.43;;;6.60;91.20;;;;;;5030436;28;20140;-55
2021/03/13 01:23:52;;;;;;;25.50;6.70;;;6.60;91.20;;;;;;5004777;28;20398;-55
2021/03/13 01:26:18;;;;;;;27.95;6.47;;;6.70;90.90;;;;;;5007494;28;20075;-55
2021/03/13 01:28:43;;;;;;;24.40;6.15;;;6.70;90.90;;;;;;5028735;28;20038;-53
2021/03/13 01:31:09;;;;;;;18.88;6.45;;;6.70;91.10;;;;;;5030286;28;20049;-56
2021/03/13 01:33:35;;;;;;;24.27;5.82;;;6.70;90.80;;;;;;5023901;28;20417;-57
2021/03/13 01:36:00;;;;;;;22.15;5.95;;;6.70;91.00;;;;;;5030384;28;20036;-56
2021/03/13 01:38:26;;;;;;;23.73;6.13;;;6.70;90.70;;;;;;5025542;28;20033;-55
2021/03/13 01:40:52;;;;;;;26.63;5.93;;;6.70;90.70;;;;;;5005429;28;20033;-56
2021/03/13 01:43:18;;;;;;;22.80;5.85;;;6.70;90.70;;;;;;5032492;28;20401;-53
2021/03/13 01:45:43;;;;;;;24.38;6.05;;;6.70;90.60;;;;;;5031096;28;20053;-53
2021/03/13 01:48:10;;;;;;;24.45;5.90;;;6.70;90.60;;;;;;5011318;28;20049;-55
2021/03/13 01:50:36;;;;;;;24.38;5.97;;;6.70;90.80;;;;;;5033467;28;20047;-53
2021/03/13 01:53:02;;;;;;;18.58;5.53;;;6.70;90.70;;;;;;5033576;28;20061;-52
2021/03/13 01:55:28;;;;;;;17.60;5.55;;;6.70;90.60;;;;;;5014293;28;20076;-53
2021/03/13 01:57:54;;;;;;;28.48;6.38;;;6.70;90.80;;;;;;5029614;28;20087;-52
2021/03/13 02:00:24;;;;;;;23.80;6.53;;;6.80;90.60;;;;;;5015326;28;20064;-54
2021/03/13 02:02:50;;;;;;;23.48;5.35;;;6.90;90.30;;;;;;5022901;28;20048;-55
2021/03/13 02:05:28;;;;;;;24.50;5.78;;;6.80;90.50;;;;;;5015705;28;20128;-54
2021/03/13 02:08:15;;;;;;;22.60;6.20;;;6.80;90.60;;;;;;5026507;28;20037;-54
2021/03/13 02:11:18;;;;;;;20.63;5.55;;;6.90;90.30;;;;;;5027883;28;20148;-54
2021/03/13 02:13:54;;;;;;;19.65;5.82;;;7.00;90.00;;;;;;5032627;28;20512;-55
2021/03/13 02:16:36;;;;;;;18.45;5.82;;;7.00;90.00;;;;;;5022460;28;20037;-55
2021/03/13 02:19:22;;;;;;;27.25;5.57;;;6.90;90.20;;;;;;5027359;28;20037;-54
2021/03/13 02:22:07;;;;;;;20.63;5.10;;;7.00;89.90;;;;;;5031826;28;20086;-55
2021/03/13 02:24:51;;;;;;;19.23;4.55;;;7.00;89.70;;;;;;5028570;28;20038;-54
2021/03/13 02:27:26;;;;;;;19.35;4.72;;;6.90;90.10;;;;;;5021630;28;20056;-51
2021/03/13 02:30:05;;;;;;;18.08;5.03;;;7.10;90.00;;;;;;5013698;28;20037;-54
2021/03/13 02:33:01;;;;;;;22.92;5.18;;;7.10;89.80;;;;;;5032701;28;20053;-51
2021/03/13 02:35:31;;;;;;;15.63;4.63;;;7.00;90.20;;;;;;5031167;28;20045;-55
2021/03/13 02:38:03;;;;;;;23.65;5.38;;;6.90;90.30;;;;;;5030441;28;20128;-52
2021/03/13 02:40:31;;;;;;;19.87;5.00;;;7.00;90.30;;;;;;5033008;28;20516;-55
2021/03/13 02:43:09;;;;;;;17.95;4.72;;;7.00;90.60;;;;;;5029985;28;20053;-55
2021/03/13 02:45:41;;;;;;;20.02;5.07;;;7.00;90.30;;;;;;5023875;28;20041;-54
2021/03/13 02:48:10;;;;;;;14.23;4.40;;;6.90;90.80;;;;;;5013820;28;20041;-54
2021/03/13 02:50:39;;;;;;;19.23;5.75;;;6.70;91.10;;;;;;4996391;28;20051;-56
2021/03/13 02:53:05;;;;;;;15.60;4.82;;;6.70;91.20;;;;;;5027956;28;20137;-55
2021/03/13 02:55:32;;;;;;;13.35;3.92;;;6.80;91.40;;;;;;5007625;28;20145;-54
2021/03/13 02:58:01;;;;;;;15.68;4.60;;;6.80;91.30;;;;;;5021968;28;20054;-55
2021/03/13 03:00:33;;;;;;;12.25;4.25;;;6.80;91.20;;;;;;5029422;28;20619;-53
2021/03/13 03:03:00;;;;;;;13.93;4.50;;;6.80;91.20;;;;;;5027796;28;20113;-55
2021/03/13 03:05:27;;;;;;;11.88;4.35;;;6.70;91.50;;;;;;5027748;28;20456;-52
2021/03/13 03:07:56;;;;;;;11.88;3.72;;;6.70;91.30;;;;;;5027471;28;20041;-57
2021/03/13 03:10:24;;;;;;;10.27;3.85;;;6.70;91.40;;;;;;5030039;28;20584;-56
2021/03/13 03:12:52;;;;;;;8.98;3.60;;;6.70;91.40;;;;;;5020854;28;20049;-52
2021/03/13 03:15:23;;;;;;;11.25;3.70;;;6.80;91.30;;;;;;5022903;28;20041;-56
2021/03/13 03:17:50;;;;;;;10.52;3.58;;;6.80;91.50;;;;;;5025010;28;20065;-57
2021/03/13 03:20:18;;;;;;;12.05;3.60;;;6.80;91.50;;;;;;5026462;28;20037;-53
2021/03/13 03:22:44;;;;;;;12.40;4.03;;;6.80;91.40;;;;;;5029804;28;20077;-54
2021/03/13 03:25:10;;;;;;;11.70;3.70;;;6.70;91.90;;;;;;5013676;28;20073;-55
2021/03/13 03:27:49;;;;;;;10.80;3.80;;;6.60;92.00;;;;;;5024530;28;20045;-55
2021/03/13 03:30:23;;;;;;;10.60;3.47;;;6.60;92.00;;;;;;5026367;28;20154;-56
2021/03/13 03:32:50;;;;;;;8.82;3.33;;;6.60;92.00;;;;;;5029983;28;20087;-56
2021/03/13 03:35:17;;;;;;;11.77;3.78;;;6.60;92.00;;;;;;5031409;28;20284;-56
2021/03/13 03:37:43;;;;;;;15.40;3.65;;;6.60;92.10;;;;;;5023854;28;20347;-55
2021/03/13 03:40:11;;;;;;;8.43;3.47;;;6.60;92.10;;;;;;5026785;28;20044;-55
2021/03/13 03:42:47;;;;;;;9.40;3.40;;;6.60;92.40;;;;;;5023718;28;20395;-55
2021/03/13 03:45:16;;;;;;;11.55;3.50;;;6.50;92.50;;;;;;5034356;28;20068;-55
2021/03/13 03:47:43;;;;;;;10.00;3.03;;;6.50;92.40;;;;;;5036944;28;20123;-56
2021/03/13 03:50:11;;;;;;;7.82;2.83;;;6.50;92.10;;;;;;5026622;28;20106;-56
2021/03/13 03:52:38;;;;;;;10.02;3.00;;;6.60;92.10;;;;;;5013023;28;20095;-56
2021/03/13 03:55:05;;;;;;;7.85;2.88;;;6.50;92.10;;;;;;5021003;28;20372;-56
2021/03/13 03:57:32;;;;;;;4.95;2.55;;;6.50;92.00;;;;;;5023721;28;20526;-55
2021/03/13 04:00:01;;;;;;;6.18;2.80;;;6.50;92.30;;;;;;5029173;28;20465;-55
2021/03/13 04:02:28;;;;;;;6.97;2.40;;;6.50;92.20;;;;;;5025454;28;20046;-56
2021/03/13 04:04:55;;;;;;;6.30;2.60;;;6.50;92.10;;;;;;5029346;28;20072;-55
2021/03/13 04:07:22;;;;;;;6.18;2.63;;;6.60;92.00;;;;;;5028298;28;20041;-56
2021/03/13 04:09:49;;;;;;;8.27;2.97;;;6.50;92.20;;;;;;5022976;28;20037;-55
2021/03/13 04:12:18;;;;;;;7.18;3.05;;;6.50;92.10;;;;;;5027385;28;20455;-56
2021/03/13 04:14:44;;;;;;;6.75;3.10;;;6.50;92.30;;;;;;5029585;28;20051;-56
2021/03/13 04:17:11;;;;;;;8.65;3.50;;;6.50;92.30;;;;;;5030735;28;20036;-56
2021/03/13 04:19:37;;;;;;;9.18;3.55;;;6.50;92.30;;;;;;5024615;28;20411;-56
2021/03/13 04:22:03;;;;;;;8.07;3.40;;;6.50;92.50;;;;;;5028135;28;20132;-56
2021/03/13 04:24:31;;;;;;;6.97;3.20;;;6.50;92.60;;;;;;5023897;28;20033;-55
2021/03/13 04:26:58;;;;;;;5.93;3.10;;;6.50;92.50;;;;;;5028558;28;20124;-55
2021/03/13 04:29:23;;;;;;;9.98;3.28;;;6.50;92.60;;;;;;5025129;28;20406;-56
2021/03/13 04:31:50;;;;;;;7.28;3.70;;;6.50;92.70;;;;;;5021700;28;20037;-56
2021/03/13 04:34:17;;;;;;;8.75;3.72;;;6.50;92.70;;;;;;5024396;28;20482;-56
2021/03/13 04:36:43;;;;;;;5.82;3.13;;;6.40;92.90;;;;;;5026270;28;20407;-55
2021/03/13 04:39:09;;;;;;;6.93;3.10;;;6.50;92.90;;;;;;5017673;28;20119;-55
2021/03/13 04:41:36;;;;;;;8.80;3.28;;;6.50;92.80;;;;;;5025499;28;20092;-56
2021/03/13 04:44:02;;;;;;;8.45;3.30;;;6.60;92.80;;;;;;5020463;28;20408;-55
2021/03/13 04:46:33;;;;;;;8.73;3.63;;;6.60;92.70;;;;;;5022774;28;20477;-53
2021/03/13 04:49:01;;;;;;;7.72;3.63;;;6.70;92.40;;;;;;5021775;28;20044;-56
2021/03/13 04:51:26;;;;;;;8.52;3.20;;;6.70;92.60;;;;;;5024885;28;20092;-55
2021/03/13 04:53:53;;;;;;;7.20;3.40;;;6.60;92.80;;;;;;5028722;28;20132;-55
2021/03/13 04:56:18;;;;;;;7.22;3.30;;;6.70;92.80;;;;;;5024107;28;20124;-55
2021/03/13 04:58:44;;;;;;;6.93;3.47;;;6.60;93.00;;;;;;5021928;28;20434;-56
2021/03/13 05:01:11;;;;;;;6.80;3.25;;;6.60;93.10;;;;;;5025952;28;20033;-54
2021/03/13 05:03:37;;;;;;;11.10;3.97;;;6.60;93.10;;;;;;5028100;28;20136;-54
2021/03/13 05:06:03;;;;;;;8.02;3.90;;;6.70;92.90;;;;;;5022147;28;20568;-55
2021/03/13 05:08:29;;;;;;;7.97;3.70;;;6.70;93.00;;;;;;5022474;28;20045;-53
2021/03/13 05:10:55;;;;;;;11.70;4.03;;;6.70;93.10;;;;;;5026659;28;20532;-57
2021/03/13 05:13:20;;;;;;;7.28;3.55;;;6.70;93.00;;;;;;5024690;28;20389;-56
2021/03/13 05:15:46;;;;;;;5.95;3.05;;;6.70;93.10;;;;;;5027828;28;20045;-54
2021/03/13 05:18:12;;;;;;;9.38;3.40;;;6.80;92.70;;;;;;5033296;28;20064;-56
2021/03/13 05:20:38;;;;;;;10.75;3.38;;;6.80;93.00;;;;;;5014392;28;20045;-56
2021/03/13 05:23:04;;;;;;;7.90;3.20;;;6.80;93.00;;;;;;5027750;28;20056;-56
2021/03/13 05:25:29;;;;;;;7.00;3.38;;;6.90;92.90;;;;;;5027325;28;20068;-55
2021/03/13 05:27:55;;;;;;;7.03;2.90;;;6.80;92.90;;;;;;5030908;28;20445;-54
2021/03/13 05:30:21;;;;;;;6.22;2.78;;;6.80;93.00;;;;;;5029562;28;20401;-53
2021/03/13 05:32:47;;;;;;;7.53;3.17;;;6.80;93.00;;;;;;5034561;28;20571;-57
2021/03/13 05:35:13;;;;;;;7.55;2.42;;;6.90;93.00;;;;;;5027569;28;20050;-56
2021/03/13 05:37:40;;;;;;;7.63;2.97;;;6.80;93.20;;;;;;5032788;28;20043;-56
2021/03/13 05:40:07;;;;;;;4.70;2.90;;;6.80;93.20;;;;;;5028058;28;20108;-57
2021/03/13 05:42:36;;;;;;;8.70;2.85;;;7.00;93.10;;;;;;5031215;28;20033;-57
2021/03/13 05:45:04;;;;;;;8.85;2.78;;;7.00;92.90;;;;;;5030412;28;20049;-57
2021/03/13 05:47:30;;;;;;;8.95;3.38;;;7.00;93.10;;;;;;5031641;28;20041;-57
2021/03/13 05:50:02;;;;;;;5.97;2.97;;;7.10;93.00;;;;;;5023657;28;20505;-58
2021/03/13 05:52:31;;;;;;;7.80;2.45;;;7.00;93.20;;;;;;5031909;28;20489;-57
2021/03/13 05:54:58;;;;;;;5.80;2.53;;;7.00;93.20;;;;;;5028259;28;20052;-57
2021/03/13 05:57:24;;;;;;;8.13;3.13;;;7.10;93.20;;;;;;5029780;28;20041;-56
2021/03/13 05:59:51;;;;;;;7.00;2.92;;;7.00;93.30;;;;;;5032546;28;20119;-56
2021/03/13 06:02:18;;;;;;;8.50;3.10;;;7.00;93.20;;;;;;5031246;28;20553;-57
2021/03/13 06:04:44;;;;;;;6.22;2.83;;;7.10;93.10;;;;;;5014957;28;20045;-56
2021/03/13 06:07:18;;;;;;;6.05;2.60;;;7.10;93.00;;;;;;5024887;28;20041;-57
2021/03/13 06:09:43;;;;;;;8.07;2.80;;;7.10;93.00;;;;;;5032463;28;20048;-56
2021/03/13 06:12:10;;;;;;;6.45;2.55;;;7.10;93.20;;;;;;5033310;28;20096;-56
2021/03/13 06:14:36;;;;;;;6.38;2.85;;;7.10;93.30;;;;;;5031929;28;20103;-56
2021/03/13 06:17:02;;;;;;;8.25;2.70;;;7.10;93.30;;;;;;5034723;28;20449;-56
2021/03/13 06:19:50;;;;;;;6.97;2.55;;;7.10;93.10;;;;;;5012572;28;20045;-56
2021/03/13 06:22:30;;;;;;;5.57;2.90;;;7.30;92.70;;;;;;5032899;28;20038;-54
2021/03/13 06:25:16;;;;;;;6.00;2.28;;;7.30;92.80;;;;;;5035869;28;20108;-56
2021/03/13 06:27:44;;;;;;;6.68;2.60;;;7.30;92.90;;;;;;5031096;28;20041;-56
2021/03/13 06:30:13;;;;;;;8.63;2.47;;;7.20;92.90;;;;;;5033718;28;20045;-55
2021/03/13 06:32:40;;;;;;;4.82;2.22;;;7.20;92.90;;;;;;5034547;28;20095;-56
2021/03/13 06:35:29;;;;;;;5.22;2.30;;;7.20;93.00;;;;;;5033991;28;20045;-56
2021/03/13 06:37:58;;;;;;;4.80;2.22;;;7.30;92.90;;;;;;5031918;28;20087;-54
2021/03/13 06:40:35;;;;;;;5.30;2.13;;;7.30;93.00;;;;;;5010072;28;20037;-56
2021/03/13 06:43:16;;;;;;;3.13;1.40;;;7.20;92.90;;;;;;5030745;28;20060;-55
2021/03/13 06:45:55;;;;;;;2.73;1.63;;;7.20;92.90;;;;;;5029869;28;20042;-55
2021/03/13 06:48:44;;;;;;;1.65;0.60;;;7.30;92.40;;;;;;5030132;28;20045;-55
2021/03/13 06:51:13;;;;;;;1.90;0.80;;;7.30;90.10;;;;;;5007076;28;20048;-57
2021/03/13 06:53:39;;;;;;;2.55;0.75;;;7.00;90.30;;;;;;5025988;28;20180;-55
2021/03/13 06:56:12;;;;;;;2.38;1.02;;;6.90;90.30;;;;;;5025779;28;20045;-56
2021/03/13 06:58:39;;;;;;;3.08;0.88;;;6.80;90.40;;;;;;5027031;28;20139;-56
2021/03/13 07:01:05;;;;;;;3.40;0.75;;;6.60;90.70;;;;;;5020508;28;20038;-56
2021/03/13 07:03:32;;;;;;;3.05;0.73;;;6.60;91.20;;;;;;5021509;28;20406;-56
2021/03/13 07:05:59;;;;;;;3.08;1.02;;;6.50;91.30;;;;;;5023432;28;20053;-55
2021/03/13 07:08:27;;;;;;;5.22;0.93;;;6.50;91.00;;;;;;5026229;28;20037;-55
2021/03/13 07:11:14;;;;;;;4.40;0.85;;;6.50;91.40;;;;;;5025893;28;20060;-54
2021/03/13 07:13:43;;;;;;;7.95;0.80;;;6.50;91.20;;;;;;5020801;28;20057;-55
2021/03/13 07:16:31;;;;;;;3.78;0.80;;;6.50;90.80;;;;;;5023726;28;20250;-56
2021/03/13 07:19:11;;;;;;;2.80;1.00;;;6.50;90.70;;;;;;5017463;28;20033;-55
2021/03/13 07:21:41;;;;;;;5.15;1.30;;;6.50;91.00;;;;;;5022896;28;20033;-56
2021/03/13 07:24:13;;;;;;;7.35;1.40;;;6.60;90.80;;;;;;5019266;28;20061;-56
2021/03/13 07:26:43;;;;;;;6.50;1.25;;;6.60;90.90;;;;;;5021843;28;20046;-56
2021/03/13 07:29:15;;;;;;;5.18;1.38;;;6.70;90.60;;;;;;5003672;28;20376;-54
2021/03/13 07:31:45;;;;;;;8.50;1.45;;;6.60;90.60;;;;;;5021878;28;20041;-56
2021/03/13 07:34:23;;;;;;;6.95;1.10;;;6.70;90.30;;;;;;5016057;28;20044;-54
2021/03/13 07:36:54;;;;;;;11.55;1.90;;;6.80;89.90;;;;;;5010406;28;20030;-56
2021/03/13 07:39:41;;;;;;;7.15;1.23;;;6.90;89.70;;;;;;5017603;28;20092;-56
2021/03/13 07:42:20;;;;;;;14.30;1.48;;;6.90;88.60;;;;;;5018372;28;20089;-56
2021/03/13 07:44:47;;;;;;;10.50;2.08;;;7.10;87.70;;;;;;5023241;28;20042;-56
2021/03/13 07:47:15;;;;;;;11.20;1.80;;;7.20;88.00;;;;;;5021194;28;20045;-54
2021/03/13 07:49:42;;;;;;;12.85;2.08;;;7.30;86.20;;;;;;5021614;28;20148;-54
2021/03/13 07:52:09;;;;;;;12.30;2.10;;;7.40;85.80;;;;;;5021659;28;20136;-55
2021/03/13 07:54:44;;;;;;;12.05;2.03;;;7.50;85.20;;;;;;5022280;28;20045;-56
2021/03/13 07:57:11;;;;;;;12.82;2.47;;;7.50;84.90;;;;;;5019399;28;20061;-56
2021/03/13 07:59:45;;;;;;;12.63;2.25;;;7.60;84.10;;;;;;5015842;28;20038;-56
2021/03/13 08:02:31;;;;;;;15.93;2.40;;;7.70;84.30;;;;;;5020754;28;20044;-56
2021/03/13 08:05:08;;;;;;;14.93;2.47;;;7.70;83.80;;;;;;5011281;28;20046;-56
2021/03/13 08:07:56;;;;;;;14.52;2.58;;;7.70;83.00;;;;;;5022245;28;20056;-56
2021/03/13 08:10:45;;;;;;;11.77;2.42;;;7.90;83.90;;;;;;5019502;28;20040;-56
2021/03/13 08:13:37;;;;;;;12.30;1.88;;;8.00;83.50;;;;;;5020042;28;20168;-56
2021/03/13 08:16:14;;;;;;;14.40;2.75;;;8.10;82.80;;;;;;4987918;28;20056;-56
2021/03/13 08:18:48;;;;;;;19.00;2.40;;;8.20;83.30;;;;;;4999598;28;20423;-54
2021/03/13 08:21:19;;;;;;;10.77;2.60;;;8.20;83.30;;;;;;5018511;28;20164;-55
2021/03/13 08:23:53;;;;;;;14.20;3.03;;;8.30;81.60;;;;;;5018544;28;20042;-55
2021/03/13 08:26:34;;;;;;;18.45;2.53;;;8.40;80.40;;;;;;5025279;28;20052;-55
2021/03/13 08:29:06;;;;;;;11.88;2.00;;;8.40;81.40;;;;;;5025079;28;20115;-56
2021/03/13 08:31:33;;;;;;;14.68;2.25;;;8.40;81.10;;;;;;5019810;28;20430;-56
2021/03/13 08:34:02;;;;;;;15.00;2.45;;;8.50;79.00;;;;;;5020567;28;20564;-56
2021/03/13 08:36:30;;;;;;;16.05;2.63;;;8.60;77.90;;;;;;5019671;28;20044;-56
2021/03/13 08:38:59;;;;;;;12.57;3.05;;;8.60;77.40;;;;;;5022363;28;20037;-56
2021/03/13 08:41:49;;;;;;;11.00;2.55;;;8.60;76.00;;;;;;5024049;28;20040;-56
2021/03/13 08:44:20;;;;;;;14.50;2.65;;;8.70;76.30;;;;;;5020372;28;20506;-54
2021/03/13 08:46:53;;;;;;;13.87;2.67;;;8.70;77.40;;;;;;5025830;28;20034;-56
2021/03/13 08:49:24;;;;;;;11.07;2.47;;;8.70;76.90;;;;;;5029840;28;20087;-56
2021/03/13 08:52:08;;;;;;;12.00;2.25;;;8.70;76.20;;;;;;5030796;28;20398;-57
2021/03/13 08:54:37;;;;;;;14.35;2.25;;;8.70;76.40;;;;;;5025553;28;20046;-56
2021/03/13 08:57:10;;;;;;;14.85;2.85;;;8.80;76.90;;;;;;5027262;28;20044;-56
2021/03/13 08:59:39;;;;;;;14.45;2.78;;;8.80;75.10;;;;;;5029609;28;20061;-57
2021/03/13 09:02:12;;;;;;;13.40;2.50;;;8.70;76.50;;;;;;5027686;28;20037;-55
2021/03/13 09:04:40;;;;;;;15.32;2.53;;;8.70;76.20;;;;;;5027472;28;20053;-55
2021/03/13 09:07:07;;;;;;;15.38;2.58;;;8.80;74.70;;;;;;5026305;28;20044;-56
2021/03/13 09:09:34;;;;;;;12.02;2.50;;;8.80;75.00;;;;;;5029267;28;20045;-56
2021/03/13 09:12:03;;;;;;;13.23;2.70;;;8.90;74.90;;;;;;5025515;28;20041;-57
2021/03/13 09:14:29;;;;;;;13.85;2.95;;;8.90;75.40;;;;;;5024260;28;20398;-57
2021/03/13 09:16:56;;;;;;;16.75;2.80;;;9.10;74.80;;;;;;5007213;28;20062;-57
2021/03/13 09:19:24;;;;;;;11.88;2.30;;;9.30;71.90;;;;;;5023382;28;20064;-57
2021/03/13 09:21:51;;;;;;;17.00;3.28;;;9.30;72.20;;;;;;5028485;28;20752;-57
2021/03/13 09:24:23;;;;;;;13.02;2.78;;;9.30;70.40;;;;;;5010880;28;20047;-55
2021/03/13 09:26:59;;;;;;;14.95;2.75;;;9.30;71.70;;;;;;5023555;28;20033;-56
2021/03/13 09:29:37;;;;;;;11.13;2.30;;;9.30;68.60;;;;;;5029847;28;20091;-56
2021/03/13 09:32:14;;;;;;;10.95;1.88;;;9.30;67.70;;;;;;5017458;28;20132;-57
2021/03/13 09:34:45;;;;;;;10.95;2.20;;;9.20;67.30;;;;;;5029161;28;20065;-56
2021/03/13 09:37:22;;;;;;;10.82;2.47;;;9.10;68.90;;;;;;5029663;28;20041;-57
2021/03/13 09:39:50;;;;;;;13.77;2.58;;;9.10;67.90;;;;;;5031272;28;20041;-56
2021/03/13 09:42:26;;;;;;;15.43;3.33;;;9.10;69.90;;;;;;5031404;28;20075;-56
2021/03/13 09:44:55;;;;;;;15.13;1.92;;;9.10;69.60;;;;;;5029956;28;20048;-57
2021/03/13 09:47:33;;;;;;;11.85;3.13;;;9.10;71.10;;;;;;5028028;28;20088;-56
2021/03/13 09:50:04;;;;;;;15.55;2.75;;;9.00;71.80;;;;;;5027957;28;20037;-56
2021/03/13 09:52:33;;;;;;;18.90;2.97;;;8.90;72.80;;;;;;5030460;28;20053;-57
2021/03/13 09:55:01;;;;;;;11.68;2.30;;;8.80;74.40;;;;;;5031469;28;20045;-56
2021/03/13 09:57:27;;;;;;;14.18;2.55;;;8.80;75.60;;;;;;5032600;28;20053;-57
2021/03/13 09:59:54;;;;;;;11.93;2.10;;;8.80;74.70;;;;;;5029392;28;20049;-56
2021/03/13 10:02:23;;;;;;;13.85;2.33;;;8.80;74.50;;;;;;5031309;28;20052;-56
2021/03/13 10:04:51;;;;;;;13.18;2.28;;;8.60;76.60;;;;;;5033117;28;20160;-57
2021/03/13 10:07:17;;;;;;;11.88;1.85;;;8.40;77.90;;;;;;5027389;28;20285;-57
2021/03/13 10:09:50;;;;;;;16.85;2.95;;;8.10;78.60;;;;;;5020063;28;20033;-57
2021/03/13 10:12:33;;;;;;;15.70;2.70;;;8.10;80.10;;;;;;5010381;28;20058;-56
2021/03/13 10:15:15;;;;;;;13.25;2.30;;;8.20;79.10;;;;;;5006660;28;20053;-57
2021/03/13 10:17:56;;;;;;;13.43;2.58;;;8.20;78.70;;;;;;5022666;28;20041;-57
2021/03/13 10:20:24;;;;;;;11.50;2.80;;;8.00;80.00;;;;;;5022418;28;20037;-56
2021/03/13 10:22:50;;;;;;;13.43;2.30;;;7.80;81.10;;;;;;5022739;28;20053;-56
2021/03/13 10:25:16;;;;;;;13.32;2.42;;;7.50;83.80;;;;;;5027216;28;20049;-56
2021/03/13 10:27:42;;;;;;;11.93;3.00;;;7.20;85.20;;;;;;5027125;28;20087;-56
2021/03/13 10:30:11;;;;;;;15.98;2.95;;;7.10;85.80;;;;;;5028025;28;20041;-55
2021/03/13 10:32:39;;;;;;;14.90;2.60;;;7.10;86.50;;;;;;5012012;28;20589;-56
2021/03/13 10:35:06;;;;;;;14.70;2.00;;;7.20;87.40;;;;;;5025803;28;20072;-56
2021/03/13 10:37:40;;;;;;;12.88;2.30;;;7.40;84.00;;;;;;5025452;28;20418;-57
2021/03/13 10:40:11;;;;;;;12.40;2.17;;;7.70;85.50;;;;;;5025966;28;20085;-56
2021/03/13 10:42:38;;;;;;;14.55;2.67;;;7.80;83.70;;;;;;5024144;28;20045;-56
2021/03/13 10:45:12;;;;;;;14.23;2.42;;;7.90;83.60;;;;;;5026817;28;20394;-56
2021/03/13 10:47:38;;;;;;;15.88;2.47;;;8.00;83.60;;;;;;5019056;28;20033;-55
2021/03/13 10:50:05;;;;;;;16.25;2.78;;;8.10;83.30;;;;;;5021689;28;20038;-56
2021/03/13 10:52:31;;;;;;;16.42;3.38;;;8.20;83.50;;;;;;5024334;28;20050;-55
2021/03/13 10:54:56;;;;;;;20.13;2.65;;;8.40;84.50;;;;;;5031090;28;20505;-57
2021/03/13 10:57:22;;;;;;;13.65;2.40;;;8.60;81.40;;;;;;5025254;28;20061;-56
2021/03/13 10:59:48;;;;;;;20.08;3.05;;;8.60;76.90;;;;;;5029211;28;20474;-57
2021/03/13 11:02:14;;;;;;;11.85;1.92;;;8.70;76.50;;;;;;5025163;28;20108;-57
2021/03/13 11:04:43;;;;;;;10.50;2.42;;;8.50;77.70;;;;;;5023388;28;20349;-57
2021/03/13 11:07:09;;;;;;;10.48;2.55;;;8.20;77.60;;;;;;5020207;28;20034;-57
2021/03/13 11:09:35;;;;;;;11.38;2.22;;;7.90;79.10;;;;;;5025114;28;20060;-57
2021/03/13 11:12:00;;;;;;;13.30;2.53;;;7.60;80.40;;;;;;5025122;28;20038;-56
2021/03/13 11:14:26;;;;;;;12.82;2.55;;;7.50;81.30;;;;;;5021748;28;20509;-57
2021/03/13 11:16:52;;;;;;;14.88;2.40;;;7.50;80.40;;;;;;5023883;28;20065;-56
2021/03/13 11:19:18;;;;;;;14.20;2.60;;;7.40;80.40;;;;;;5017396;28;20112;-56
2021/03/13 11:21:44;;;;;;;18.85;3.15;;;7.50;81.20;;;;;;5019160;28;20105;-56
2021/03/13 11:24:10;;;;;;;17.77;3.00;;;7.50;82.00;;;;;;5015660;28;20049;-57
2021/03/13 11:26:36;;;;;;;18.25;3.10;;;7.60;82.70;;;;;;5014737;28;20394;-56
2021/03/13 11:29:05;;;;;;;12.43;2.20;;;7.70;83.70;;;;;;4998758;28;20053;-56
2021/03/13 11:31:32;;;;;;;15.63;2.63;;;8.00;81.70;;;;;;5018782;28;20064;-57
2021/03/13 11:33:58;;;;;;;12.32;2.20;;;8.20;79.60;;;;;;5018475;28;20122;-57
2021/03/13 11:36:24;;;;;;;11.50;2.60;;;8.50;77.90;;;;;;5016633;28;20142;-56
2021/03/13 11:38:50;;;;;;;13.43;2.55;;;8.60;78.20;;;;;;5016481;28;20069;-56
2021/03/13 11:41:16;;;;;;;14.13;3.10;;;8.90;78.20;;;;;;5014649;28;20061;-58
2021/03/13 11:43:42;;;;;;;12.35;2.22;;;9.00;77.30;;;;;;5014407;28;20436;-56
2021/03/13 11:46:10;;;;;;;8.02;1.95;;;9.10;75.40;;;;;;5022195;28;20033;-56
2021/03/13 11:48:36;;;;;;;12.18;2.17;;;8.90;72.70;;;;;;5017012;28;20395;-56
2021/03/13 11:51:02;;;;;;;17.67;2.67;;;8.70;74.80;;;;;;5016006;28;20037;-58
2021/03/13 11:53:28;;;;;;;10.90;2.08;;;8.40;75.90;;;;;;5022080;28;20128;-54
2021/03/13 11:55:54;;;;;;;13.20;2.55;;;8.20;77.00;;;;;;5026719;28;20125;-56
2021/03/13 11:58:20;;;;;;;12.82;2.28;;;8.10;79.10;;;;;;5030390;28;20457;-53
2021/03/13 12:00:46;;;;;;;16.33;3.25;;;8.10;79.30;;;;;;5026000;28;20113;-57
2021/03/13 12:03:12;;;;;;;12.40;1.95;;;8.00;80.20;;;;;;5030660;28;20056;-57
2021/03/13 12:05:38;;;;;;;10.80;2.40;;;7.80;80.90;;;;;;5028777;28;20038;-56
2021/03/13 12:08:04;;;;;;;9.57;2.13;;;7.50;82.60;;;;;;5025496;28;20045;-55
2021/03/13 12:10:30;;;;;;;14.35;2.10;;;7.20;82.80;;;;;;5035114;28;20049;-55
2021/03/13 12:12:56;;;;;;;11.15;2.25;;;7.10;84.80;;;;;;5030586;28;20515;-57
2021/03/13 12:15:23;;;;;;;11.52;2.08;;;6.90;86.00;;;;;;5031488;28;20474;-57
2021/03/13 12:17:50;;;;;;;17.65;2.45;;;6.90;87.20;;;;;;5024794;28;20083;-57
2021/03/13 12:20:16;;;;;;;13.90;2.50;;;7.00;88.30;;;;;;5017079;28;20064;-56
2021/03/13 12:22:42;;;;;;;13.30;2.30;;;7.30;89.50;;;;;;5031015;28;20044;-56
2021/03/13 12:25:08;;;;;;;13.60;2.80;;;7.60;89.60;;;;;;5030153;28;20041;-56
2021/03/13 12:27:40;;;;;;;14.90;2.60;;;7.70;87.50;;;;;;5028487;28;20118;-57
2021/03/13 12:30:10;;;;;;;12.65;2.58;;;7.80;85.50;;;;;;5030249;28;20041;-56
2021/03/13 12:32:39;;;;;;;10.10;2.20;;;7.90;88.10;;;;;;5029668;28;20052;-53
2021/03/13 12:35:09;;;;;;;9.07;2.15;;;8.20;84.40;;;;;;5027095;28;20087;-56
2021/03/13 12:37:36;;;;;;;5.38;2.10;;;8.50;83.70;;;;;;5020824;28;20099;-57
2021/03/13 12:40:04;;;;;;;11.55;1.80;;;8.70;81.20;;;;;;5035458;28;20052;-57
2021/03/13 12:42:30;;;;;;;8.75;1.30;;;8.80;80.20;;;;;;5019893;28;20452;-55
2021/03/13 12:44:56;;;;;;;5.45;1.58;;;8.80;78.80;;;;;;5025851;28;20041;-56
2021/03/13 12:47:21;;;;;;;10.68;1.88;;;8.90;77.40;;;;;;5028474;28;20493;-57
2021/03/13 12:49:47;;;;;;;8.02;1.88;;;8.80;75.70;;;;;;5027025;28;20487;-56
2021/03/13 12:52:13;;;;;;;13.30;2.58;;;8.70;76.30;;;;;;5030611;28;20041;-56
2021/03/13 12:54:39;;;;;;;11.00;1.90;;;8.70;78.00;;;;;;5023938;28;20482;-57
2021/03/13 12:57:05;;;;;;;12.50;2.78;;;8.80;78.50;;;;;;5016077;28;20041;-56
2021/03/13 12:59:30;;;;;;;14.73;2.65;;;8.90;76.30;;;;;;5007703;28;20053;-57
2021/03/13 13:01:56;;;;;;;10.82;2.33;;;9.00;76.90;;;;;;5024115;28;20037;-57